Time;durP1;ratioP1;P1;durP2;ratioP2;P2;SDS_P1;SDS_P2;PMS_P1;PMS_P2;Temp;Humidity;BMP_temperature;BMP_pressure;BME280_temperature;BME280_humidity;BME280_pressure;Samples;Min_cycle;Max_cycle;Signal;HPM_P1;HPM_P2
2022/03/26 00:00:51;;;;;;;40.20;17.67;;;6.50;99.90;;;;;;5080873;28;20173;-65
2022/03/26 00:03:17;;;;;;;39.30;18.33;;;6.50;99.90;;;;;;5082017;28;20187;-65
2022/03/26 00:05:45;;;;;;;35.00;17.63;;;6.50;99.90;;;;;;5077255;28;20151;-66
2022/03/26 00:08:12;;;;;;;34.93;18.17;;;6.40;99.90;;;;;;5077703;28;20198;-65
2022/03/26 00:10:38;;;;;;;26.87;16.10;;;6.50;99.90;;;;;;5076463;28;20580;-66
2022/03/26 00:13:05;;;;;;;32.67;16.50;;;6.40;99.90;;;;;;5075934;28;20164;-65
2022/03/26 00:15:31;;;;;;;38.83;19.60;;;6.50;99.90;;;;;;5077033;28;20160;-66
2022/03/26 00:17:56;;;;;;;36.73;16.67;;;6.30;99.90;;;;;;5078207;28;20220;-65
2022/03/26 00:20:22;;;;;;;35.27;18.00;;;6.20;99.90;;;;;;5077414;28;20547;-66
2022/03/26 00:22:48;;;;;;;35.00;17.10;;;6.10;99.90;;;;;;5075355;28;20165;-65
2022/03/26 00:25:15;;;;;;;33.87;17.70;;;6.10;99.90;;;;;;5075064;28;20503;-65
2022/03/26 00:27:41;;;;;;;34.63;17.60;;;6.10;99.90;;;;;;5075979;28;20183;-66
2022/03/26 00:30:10;;;;;;;32.80;17.27;;;6.00;99.90;;;;;;5075225;28;20156;-65
2022/03/26 00:32:35;;;;;;;37.70;16.47;;;6.10;99.90;;;;;;5057141;28;20268;-66
2022/03/26 00:35:01;;;;;;;27.17;15.53;;;6.10;99.90;;;;;;5075704;28;20281;-66
2022/03/26 00:37:27;;;;;;;34.77;16.97;;;6.10;99.90;;;;;;5075986;28;20584;-67
2022/03/26 00:39:53;;;;;;;31.83;16.50;;;6.10;99.90;;;;;;5075381;28;20220;-67
2022/03/26 00:42:18;;;;;;;29.73;15.13;;;6.00;99.90;;;;;;5075503;28;20153;-65
2022/03/26 00:44:44;;;;;;;43.27;20.97;;;5.90;99.90;;;;;;5075497;28;20178;-65
2022/03/26 00:47:10;;;;;;;36.57;21.30;;;5.90;99.90;;;;;;5075494;28;20176;-65
2022/03/26 00:49:36;;;;;;;39.53;21.50;;;5.90;99.90;;;;;;5075271;28;20225;-66
2022/03/26 00:52:03;;;;;;;39.03;22.67;;;5.90;99.90;;;;;;5057012;28;20188;-66
2022/03/26 00:54:30;;;;;;;35.20;17.10;;;5.90;99.90;;;;;;5075619;28;20199;-67
2022/03/26 00:56:57;;;;;;;39.70;22.30;;;5.90;99.90;;;;;;5075591;28;20167;-66
2022/03/26 00:59:22;;;;;;;30.63;19.47;;;5.90;99.90;;;;;;5075426;28;20511;-65
2022/03/26 01:01:48;;;;;;;32.50;17.13;;;5.80;99.90;;;;;;5057506;28;20182;-67
2022/03/26 01:04:14;;;;;;;33.70;16.67;;;5.70;99.90;;;;;;5076572;28;20160;-65
2022/03/26 01:06:39;;;;;;;38.60;19.87;;;5.70;99.90;;;;;;5075325;28;20175;-66
2022/03/26 01:09:07;;;;;;;35.30;17.00;;;5.60;99.90;;;;;;5074543;28;20207;-65
2022/03/26 01:11:32;;;;;;;43.33;21.33;;;5.70;99.90;;;;;;5075362;28;20212;-65
2022/03/26 01:13:58;;;;;;;27.93;15.37;;;5.70;99.90;;;;;;5075175;28;20614;-69
2022/03/26 01:16:24;;;;;;;38.03;19.73;;;5.70;99.90;;;;;;5075269;28;20178;-65
2022/03/26 01:18:51;;;;;;;38.33;21.37;;;5.70;99.90;;;;;;5075343;28;20175;-64
2022/03/26 01:21:19;;;;;;;39.83;20.33;;;5.60;99.90;;;;;;5075194;28;20197;-65
2022/03/26 01:23:46;;;;;;;34.40;20.07;;;5.60;99.90;;;;;;5075576;28;20171;-66
2022/03/26 01:26:13;;;;;;;37.27;20.70;;;5.60;99.90;;;;;;5075678;28;20184;-66
2022/03/26 01:28:39;;;;;;;40.87;21.50;;;5.50;99.90;;;;;;5075727;28;20282;-65
2022/03/26 01:31:04;;;;;;;35.93;20.80;;;5.50;99.90;;;;;;5075841;28;20222;-65
2022/03/26 01:33:30;;;;;;;41.87;21.23;;;5.50;99.90;;;;;;5076380;28;20490;-65
2022/03/26 01:35:56;;;;;;;28.10;14.90;;;5.40;99.90;;;;;;5074422;28;20221;-67
2022/03/26 01:38:22;;;;;;;34.37;18.57;;;5.30;99.90;;;;;;5076151;28;20532;-65
2022/03/26 01:40:48;;;;;;;36.57;19.73;;;5.30;99.90;;;;;;5075740;28;20206;-65
2022/03/26 01:43:13;;;;;;;34.23;19.47;;;5.30;99.90;;;;;;5074704;28;20257;-67
2022/03/26 01:45:39;;;;;;;33.27;15.50;;;5.40;99.90;;;;;;5074548;28;20194;-64
2022/03/26 01:48:05;;;;;;;37.20;19.43;;;5.30;99.90;;;;;;5073943;28;20551;-65
2022/03/26 01:50:31;;;;;;;32.97;18.87;;;5.30;99.90;;;;;;5074292;28;20250;-66
2022/03/26 01:52:57;;;;;;;34.93;19.30;;;5.20;99.90;;;;;;5080277;28;20222;-66
2022/03/26 01:55:25;;;;;;;30.17;14.97;;;5.40;99.90;;;;;;5053797;28;20170;-66
2022/03/26 01:57:51;;;;;;;28.77;14.70;;;5.30;99.90;;;;;;5036386;28;20237;-65
2022/03/26 02:00:17;;;;;;;33.60;18.43;;;5.40;99.90;;;;;;5053984;28;20158;-66
2022/03/26 02:02:43;;;;;;;35.43;19.00;;;5.30;99.90;;;;;;5053948;28;20178;-66
2022/03/26 02:05:13;;;;;;;34.73;19.57;;;5.30;99.90;;;;;;5054014;28;20164;-66
2022/03/26 02:07:43;;;;;;;43.13;21.10;;;5.20;99.90;;;;;;5053723;28;20182;-65
2022/03/26 02:10:11;;;;;;;34.33;19.33;;;5.20;99.90;;;;;;5054161;28;20287;-65
2022/03/26 02:12:37;;;;;;;31.43;16.13;;;5.10;99.90;;;;;;5035704;28;20184;-67
2022/03/26 02:15:06;;;;;;;29.07;16.70;;;5.20;99.90;;;;;;5054204;28;20182;-65
2022/03/26 02:17:36;;;;;;;34.67;18.70;;;5.10;99.90;;;;;;5036238;28;20178;-64
2022/03/26 02:20:06;;;;;;;40.13;19.73;;;5.10;99.90;;;;;;5053709;28;20166;-65
2022/03/26 02:22:31;;;;;;;35.60;19.57;;;5.10;99.90;;;;;;5053818;28;20604;-66
2022/03/26 02:24:57;;;;;;;36.80;18.37;;;5.10;99.90;;;;;;5053894;28;20158;-67
2022/03/26 02:27:24;;;;;;;34.73;19.80;;;5.00;99.90;;;;;;5035738;28;20226;-67
2022/03/26 02:29:51;;;;;;;36.60;19.47;;;4.90;99.90;;;;;;5054087;28;20541;-66
2022/03/26 02:32:24;;;;;;;33.57;18.93;;;4.90;99.90;;;;;;5053090;28;20256;-66
2022/03/26 02:34:51;;;;;;;33.83;19.37;;;4.80;99.90;;;;;;5053133;28;20700;-65
2022/03/26 02:37:17;;;;;;;35.27;18.67;;;4.80;99.90;;;;;;5053470;28;20203;-66
2022/03/26 02:39:44;;;;;;;35.67;20.27;;;4.80;99.90;;;;;;5053388;28;20624;-66
2022/03/26 02:42:11;;;;;;;37.50;18.73;;;5.00;99.90;;;;;;5035293;28;20172;-65
2022/03/26 02:44:36;;;;;;;33.17;19.17;;;4.90;99.90;;;;;;5053315;28;20163;-65
2022/03/26 02:47:02;;;;;;;31.07;15.53;;;4.80;99.90;;;;;;5053069;28;20438;-65
2022/03/26 02:49:28;;;;;;;31.73;18.67;;;4.80;99.90;;;;;;5052152;28;20278;-65
2022/03/26 02:51:53;;;;;;;36.73;19.03;;;4.80;99.90;;;;;;5052704;28;20193;-67
2022/03/26 02:54:19;;;;;;;35.13;19.87;;;4.80;99.90;;;;;;5073394;28;20171;-65
2022/03/26 02:56:49;;;;;;;39.87;19.20;;;4.70;99.90;;;;;;5073753;28;20250;-65
2022/03/26 02:59:16;;;;;;;37.53;19.50;;;4.70;99.90;;;;;;5073261;28;20169;-65
2022/03/26 03:01:41;;;;;;;34.00;17.60;;;4.70;99.90;;;;;;5073048;28;20166;-66
2022/03/26 03:04:07;;;;;;;36.43;19.80;;;4.60;99.90;;;;;;5072996;28;20216;-66
2022/03/26 03:06:34;;;;;;;36.40;20.47;;;4.60;99.90;;;;;;5073045;28;20174;-65
2022/03/26 03:09:01;;;;;;;40.03;20.00;;;4.50;99.90;;;;;;5072424;28;20389;-65
2022/03/26 03:11:27;;;;;;;34.93;20.40;;;4.50;99.90;;;;;;5073079;28;20168;-66
2022/03/26 03:13:53;;;;;;;36.70;19.43;;;4.40;99.90;;;;;;5072921;28;20167;-66
2022/03/26 03:16:18;;;;;;;36.70;19.40;;;4.40;99.90;;;;;;5072601;28;20248;-65
2022/03/26 03:18:44;;;;;;;39.00;19.50;;;4.40;99.90;;;;;;5073238;28;20165;-66
2022/03/26 03:21:09;;;;;;;35.43;19.37;;;4.40;99.90;;;;;;5073110;28;20572;-67
2022/03/26 03:23:35;;;;;;;40.20;20.63;;;4.40;99.90;;;;;;5072804;28;20175;-65
2022/03/26 03:26:02;;;;;;;37.43;19.33;;;4.50;99.90;;;;;;5073001;28;20174;-65
2022/03/26 03:28:28;;;;;;;35.53;18.77;;;4.40;99.90;;;;;;5072463;28;20234;-69
2022/03/26 03:30:54;;;;;;;33.13;19.47;;;4.30;99.90;;;;;;5072541;28;20172;-65
2022/03/26 03:33:19;;;;;;;35.33;18.77;;;4.30;99.90;;;;;;5072681;28;20601;-66
2022/03/26 03:35:45;;;;;;;39.87;19.97;;;4.30;99.90;;;;;;5072939;28;20172;-65
2022/03/26 03:38:11;;;;;;;40.77;19.57;;;4.20;99.90;;;;;;5072815;28;20513;-66
2022/03/26 03:40:36;;;;;;;33.33;19.53;;;4.40;99.90;;;;;;5072631;28;20545;-66
2022/03/26 03:43:02;;;;;;;33.70;18.73;;;4.10;99.90;;;;;;5072487;28;20167;-66
2022/03/26 03:45:28;;;;;;;34.50;18.90;;;4.20;99.90;;;;;;5072464;28;20160;-67
2022/03/26 03:47:53;;;;;;;31.47;18.23;;;4.30;99.90;;;;;;5088881;28;20252;-66
2022/03/26 03:50:19;;;;;;;33.17;16.97;;;4.40;99.90;;;;;;5073650;28;20174;-65
2022/03/26 03:52:45;;;;;;;35.00;19.20;;;4.40;99.90;;;;;;5074813;28;20224;-65
2022/03/26 03:55:11;;;;;;;36.20;19.00;;;4.30;99.90;;;;;;5074140;28;20175;-66
2022/03/26 03:57:42;;;;;;;32.50;19.63;;;4.40;99.90;;;;;;5073416;28;20153;-67
2022/03/26 04:00:11;;;;;;;30.93;18.63;;;4.40;99.90;;;;;;5074536;28;20185;-66
2022/03/26 04:02:37;;;;;;;34.40;18.57;;;4.30;99.90;;;;;;5077234;28;20267;-68
2022/03/26 04:05:03;;;;;;;34.67;18.40;;;4.30;99.90;;;;;;5076489;28;20572;-65
2022/03/26 04:07:29;;;;;;;33.63;17.13;;;4.30;99.90;;;;;;5058865;28;20181;-64
2022/03/26 04:09:55;;;;;;;33.20;18.73;;;4.30;99.90;;;;;;5076630;28;20628;-66
2022/03/26 04:12:21;;;;;;;33.70;19.20;;;4.30;99.90;;;;;;5078847;28;20159;-67
2022/03/26 04:14:46;;;;;;;31.10;17.73;;;4.20;99.90;;;;;;5078596;28;20160;-65
2022/03/26 04:17:12;;;;;;;32.00;18.23;;;4.20;99.90;;;;;;5078728;28;20166;-66
2022/03/26 04:19:39;;;;;;;43.13;20.03;;;4.30;99.90;;;;;;5078870;28;20250;-66
2022/03/26 04:22:08;;;;;;;33.47;19.47;;;4.20;99.90;;;;;;5078287;28;20213;-65
2022/03/26 04:24:36;;;;;;;34.57;19.33;;;4.20;99.90;;;;;;5077595;28;20170;-65
2022/03/26 04:27:02;;;;;;;32.27;18.67;;;4.20;99.90;;;;;;5075668;28;20152;-65
2022/03/26 04:29:28;;;;;;;38.37;19.30;;;4.20;99.90;;;;;;5075657;28;20196;-65
2022/03/26 04:31:54;;;;;;;32.93;18.47;;;4.20;99.90;;;;;;5075508;28;20259;-66
2022/03/26 04:34:20;;;;;;;32.50;18.70;;;4.20;99.90;;;;;;5091611;28;20186;-65
2022/03/26 04:36:45;;;;;;;30.77;18.23;;;4.20;99.90;;;;;;5076234;28;20580;-64
2022/03/26 04:39:11;;;;;;;37.90;18.13;;;4.10;99.90;;;;;;5076739;28;20472;-65
2022/03/26 04:41:36;;;;;;;43.50;19.20;;;4.20;99.90;;;;;;5077862;28;20186;-66
2022/03/26 04:44:02;;;;;;;33.67;17.20;;;4.20;99.90;;;;;;5061055;28;20254;-65
2022/03/26 04:46:28;;;;;;;41.10;19.23;;;4.10;99.90;;;;;;5079829;28;20160;-66
2022/03/26 04:48:54;;;;;;;32.90;16.47;;;4.10;99.90;;;;;;5080962;28;20206;-66
2022/03/26 04:51:20;;;;;;;31.53;18.30;;;4.10;99.90;;;;;;5077367;28;20179;-65
2022/03/26 04:53:46;;;;;;;39.67;19.33;;;4.10;99.90;;;;;;5075528;28;20232;-64
2022/03/26 04:56:11;;;;;;;36.27;19.07;;;4.10;99.90;;;;;;5074957;28;20164;-66
2022/03/26 04:58:37;;;;;;;30.63;17.23;;;4.10;99.90;;;;;;5075775;28;20176;-66
2022/03/26 05:01:04;;;;;;;35.10;17.87;;;4.00;99.90;;;;;;5075632;28;20210;-65
2022/03/26 05:03:30;;;;;;;31.90;18.33;;;4.00;99.90;;;;;;5075407;28;20156;-64
2022/03/26 05:05:55;;;;;;;32.37;18.67;;;4.00;99.90;;;;;;5075689;28;20171;-65
2022/03/26 05:08:21;;;;;;;39.27;19.30;;;4.00;99.90;;;;;;5074964;28;20210;-66
2022/03/26 05:10:47;;;;;;;37.37;18.17;;;4.10;99.90;;;;;;5090393;28;20250;-65
2022/03/26 05:13:12;;;;;;;36.87;19.43;;;4.00;99.90;;;;;;5075100;28;20526;-65
2022/03/26 05:15:38;;;;;;;34.03;18.53;;;3.90;99.90;;;;;;5075160;28;20190;-66
2022/03/26 05:18:03;;;;;;;31.67;17.33;;;4.10;99.90;;;;;;5075969;28;20163;-66
2022/03/26 05:20:29;;;;;;;36.77;18.23;;;4.00;99.90;;;;;;5074993;28;20255;-66
2022/03/26 05:22:55;;;;;;;36.43;19.20;;;4.00;99.90;;;;;;5075442;28;20249;-65
2022/03/26 05:25:20;;;;;;;37.40;18.67;;;4.00;99.90;;;;;;5074858;28;20179;-63
2022/03/26 05:27:51;;;;;;;32.77;17.80;;;4.00;99.90;;;;;;5074646;28;20164;-67
2022/03/26 05:30:18;;;;;;;38.60;19.00;;;4.00;99.90;;;;;;5074747;28;20161;-66
2022/03/26 05:32:44;;;;;;;37.23;20.23;;;4.00;99.90;;;;;;5074761;28;20155;-66
2022/03/26 05:35:13;;;;;;;35.70;19.40;;;4.00;99.90;;;;;;5074767;28;20604;-65
2022/03/26 05:37:41;;;;;;;31.53;17.63;;;4.10;99.90;;;;;;5056435;28;20187;-66
2022/03/26 05:40:07;;;;;;;32.53;18.47;;;4.20;99.90;;;;;;5074541;28;20199;-66
2022/03/26 05:42:35;;;;;;;34.77;19.60;;;4.00;99.90;;;;;;5074349;28;20566;-64
2022/03/26 05:45:04;;;;;;;37.70;19.10;;;4.00;99.90;;;;;;5074749;28;20176;-65
2022/03/26 05:47:30;;;;;;;32.53;17.57;;;4.10;99.90;;;;;;5074191;28;20171;-65
2022/03/26 05:49:56;;;;;;;32.27;17.43;;;4.10;99.90;;;;;;5074464;28;20678;-66
2022/03/26 05:52:22;;;;;;;34.43;18.97;;;4.20;99.90;;;;;;5074504;28;20312;-66
2022/03/26 05:54:47;;;;;;;36.20;18.63;;;4.20;99.90;;;;;;5074297;28;20489;-65
2022/03/26 05:57:13;;;;;;;35.40;18.53;;;4.20;99.90;;;;;;5073858;28;20250;-66
2022/03/26 05:59:39;;;;;;;35.03;18.93;;;4.20;99.90;;;;;;5056769;28;20526;-64
2022/03/26 06:02:05;;;;;;;40.40;19.20;;;4.20;99.90;;;;;;5074163;28;20652;-65
2022/03/26 06:04:30;;;;;;;37.57;19.23;;;4.30;99.90;;;;;;5073962;28;20651;-68
2022/03/26 06:06:59;;;;;;;33.23;18.70;;;4.30;99.90;;;;;;5056223;28;20175;-65
2022/03/26 06:09:24;;;;;;;33.87;19.17;;;4.40;99.90;;;;;;5090330;28;20216;-65
2022/03/26 06:11:50;;;;;;;33.10;17.93;;;4.40;99.90;;;;;;5074151;28;20529;-64
2022/03/26 06:14:18;;;;;;;31.50;19.30;;;4.50;99.90;;;;;;5074398;28;20266;-64
2022/03/26 06:16:45;;;;;;;41.27;19.07;;;4.60;99.90;;;;;;5073842;28;20184;-66
2022/03/26 06:19:12;;;;;;;34.23;19.07;;;4.60;99.90;;;;;;5074235;28;20178;-65
2022/03/26 06:21:37;;;;;;;32.00;18.53;;;4.70;99.90;;;;;;5074674;28;20183;-66
2022/03/26 06:24:04;;;;;;;31.77;18.67;;;4.90;99.90;;;;;;5073144;28;20252;-65
2022/03/26 06:26:30;;;;;;;32.80;18.10;;;5.00;99.90;;;;;;5077757;28;20161;-67
2022/03/26 06:28:56;;;;;;;28.67;15.23;;;5.10;99.90;;;;;;5081606;28;20286;-66
2022/03/26 06:31:22;;;;;;;31.00;14.93;;;5.10;99.90;;;;;;5080251;28;20178;-66
2022/03/26 06:33:48;;;;;;;27.00;14.70;;;5.20;99.90;;;;;;5074912;28;20167;-68
2022/03/26 06:36:13;;;;;;;36.00;18.10;;;5.10;99.90;;;;;;5074144;28;20180;-67
2022/03/26 06:38:41;;;;;;;33.60;18.57;;;5.20;99.90;;;;;;5074017;28;20269;-66
2022/03/26 06:41:09;;;;;;;27.23;14.27;;;5.30;99.90;;;;;;5074412;28;20164;-67
2022/03/26 06:43:36;;;;;;;26.47;13.87;;;5.40;99.90;;;;;;5073507;28;20157;-66
2022/03/26 06:46:02;;;;;;;25.60;15.33;;;5.50;99.90;;;;;;5073531;28;20171;-66
2022/03/26 06:48:28;;;;;;;26.50;14.33;;;5.60;99.90;;;;;;5073619;28;20284;-66
2022/03/26 06:50:53;;;;;;;31.37;14.17;;;5.70;99.90;;;;;;5089101;28;20178;-68
2022/03/26 06:53:20;;;;;;;23.10;13.23;;;5.80;99.90;;;;;;5073344;28;20226;-65
2022/03/26 06:55:46;;;;;;;29.30;13.70;;;5.80;99.90;;;;;;5073605;28;20196;-65
2022/03/26 06:58:12;;;;;;;21.90;12.37;;;5.90;99.90;;;;;;5073395;28;20216;-65
2022/03/26 07:00:37;;;;;;;26.27;13.80;;;6.10;99.90;;;;;;5089657;28;20604;-64
2022/03/26 07:03:03;;;;;;;32.10;17.93;;;6.10;99.90;;;;;;5074624;28;20516;-64
2022/03/26 07:05:28;;;;;;;29.27;14.37;;;6.20;99.90;;;;;;5081238;28;20167;-68
2022/03/26 07:07:54;;;;;;;33.53;12.93;;;6.30;99.90;;;;;;5082168;28;20213;-65
2022/03/26 07:10:20;;;;;;;20.57;11.77;;;6.50;99.90;;;;;;5064952;28;20192;-66
2022/03/26 07:12:46;;;;;;;25.50;14.03;;;6.50;99.90;;;;;;5080495;28;20165;-65
2022/03/26 07:15:12;;;;;;;26.80;13.60;;;6.60;99.90;;;;;;5078272;28;20160;-65
2022/03/26 07:17:39;;;;;;;31.27;13.83;;;6.70;99.90;;;;;;5077924;28;20175;-66
2022/03/26 07:20:06;;;;;;;28.87;14.93;;;6.70;99.90;;;;;;5078158;28;20195;-64
2022/03/26 07:22:31;;;;;;;29.20;15.33;;;6.90;99.90;;;;;;5078858;28;20182;-64
2022/03/26 07:24:57;;;;;;;26.13;13.77;;;7.10;99.90;;;;;;5077809;28;20152;-67
2022/03/26 07:27:23;;;;;;;30.03;15.00;;;7.20;99.90;;;;;;5075703;28;20613;-65
2022/03/26 07:29:48;;;;;;;25.40;14.10;;;7.10;99.90;;;;;;5073700;28;20279;-65
2022/03/26 07:32:14;;;;;;;29.20;14.70;;;7.40;99.90;;;;;;5073084;28;20171;-66
2022/03/26 07:34:40;;;;;;;24.30;14.20;;;7.60;99.90;;;;;;5074893;28;20275;-65
2022/03/26 07:37:06;;;;;;;31.50;14.97;;;7.70;99.90;;;;;;5077202;28;20501;-65
2022/03/26 07:39:32;;;;;;;26.07;14.70;;;7.90;99.90;;;;;;5076742;28;20180;-64
2022/03/26 07:41:58;;;;;;;28.00;15.93;;;8.10;99.90;;;;;;5076905;28;20172;-66
2022/03/26 07:44:23;;;;;;;27.13;14.73;;;8.20;99.90;;;;;;5077182;28;20244;-65
2022/03/26 07:46:49;;;;;;;33.47;16.20;;;8.30;99.90;;;;;;5076578;28;20247;-66
2022/03/26 07:49:14;;;;;;;32.30;16.53;;;8.50;99.90;;;;;;5076784;28;20206;-65
2022/03/26 07:51:40;;;;;;;31.13;15.67;;;8.60;99.90;;;;;;5076789;28;20193;-68
2022/03/26 07:54:06;;;;;;;26.20;14.90;;;8.90;99.90;;;;;;5091917;28;20232;-65
2022/03/26 07:56:31;;;;;;;30.07;16.53;;;8.90;99.90;;;;;;5076315;28;20609;-65
2022/03/26 07:59:00;;;;;;;32.43;17.57;;;9.10;99.90;;;;;;5076676;28;20166;-67
2022/03/26 08:01:27;;;;;;;29.73;16.47;;;9.40;99.90;;;;;;5076957;28;20666;-66
2022/03/26 08:03:54;;;;;;;30.43;16.13;;;9.50;99.90;;;;;;5078474;28;20164;-66
2022/03/26 08:06:23;;;;;;;33.10;17.30;;;9.60;99.90;;;;;;5078931;28;20167;-66
2022/03/26 08:08:49;;;;;;;30.83;16.57;;;9.60;99.90;;;;;;5076326;28;20243;-66
2022/03/26 08:11:15;;;;;;;25.10;15.30;;;9.80;99.90;;;;;;5076866;28;20218;-65
2022/03/26 08:13:41;;;;;;;32.63;16.07;;;10.10;99.90;;;;;;5076803;28;20164;-67
2022/03/26 08:16:08;;;;;;;29.47;16.43;;;10.10;99.90;;;;;;5077637;28;20579;-69
2022/03/26 08:18:34;;;;;;;34.43;16.77;;;10.30;99.90;;;;;;5077092;28;20209;-65
2022/03/26 08:20:59;;;;;;;26.73;15.73;;;10.60;99.90;;;;;;5078665;28;20274;-67
2022/03/26 08:23:25;;;;;;;35.07;16.07;;;10.80;99.90;;;;;;5079737;28;20163;-68
2022/03/26 08:28:36;;;;;;;32.97;15.73;;;11.00;99.90;;;;;;5079375;28;20211;-66
2022/03/26 08:31:02;;;;;;;31.80;16.50;;;11.30;99.90;;;;;;5079566;28;20206;-65
2022/03/26 08:33:27;;;;;;;34.27;17.17;;;11.50;99.90;;;;;;5061966;28;20179;-67
2022/03/26 08:35:53;;;;;;;31.53;17.93;;;11.50;99.90;;;;;;5078364;28;20284;-67
2022/03/26 08:38:19;;;;;;;32.90;17.00;;;11.50;99.90;;;;;;5075754;28;20183;-65
2022/03/26 08:40:44;;;;;;;31.93;17.00;;;11.70;99.90;;;;;;5091165;28;20190;-66
2022/03/26 08:43:10;;;;;;;36.20;15.30;;;11.90;99.90;;;;;;5075742;28;20169;-67
2022/03/26 08:45:36;;;;;;;33.17;15.17;;;12.10;99.90;;;;;;5090672;28;20207;-67
2022/03/26 08:48:03;;;;;;;32.50;15.50;;;12.20;99.90;;;;;;5076470;28;20167;-66
2022/03/26 08:50:28;;;;;;;35.60;16.27;;;12.40;99.90;;;;;;5075972;28;20221;-66
2022/03/26 08:52:54;;;;;;;30.53;15.37;;;12.70;99.90;;;;;;5075510;28;20246;-65
2022/03/26 08:55:20;;;;;;;31.60;15.27;;;12.80;99.90;;;;;;5075434;28;20250;-65
2022/03/26 08:57:46;;;;;;;27.40;14.37;;;13.00;99.90;;;;;;5090705;28;20198;-67
2022/03/26 09:00:14;;;;;;;34.67;15.37;;;13.10;99.90;;;;;;5074767;28;20174;-68
2022/03/26 09:02:40;;;;;;;32.00;15.70;;;13.00;99.90;;;;;;5075074;28;20543;-65
2022/03/26 09:05:06;;;;;;;30.03;15.93;;;13.10;99.90;;;;;;5075025;28;20155;-66
2022/03/26 09:07:35;;;;;;;30.27;15.83;;;13.10;99.90;;;;;;5075148;28;20152;-66
2022/03/26 09:10:02;;;;;;;35.70;15.47;;;13.00;99.90;;;;;;5075184;28;20238;-64
2022/03/26 09:12:27;;;;;;;33.43;16.30;;;13.10;99.90;;;;;;5074434;28;20155;-66
2022/03/26 09:14:53;;;;;;;33.60;15.93;;;13.10;99.90;;;;;;5074431;28;20170;-65
2022/03/26 09:17:18;;;;;;;30.63;15.47;;;13.20;99.90;;;;;;5074598;28;20243;-64
2022/03/26 09:19:44;;;;;;;31.63;15.20;;;13.20;99.90;;;;;;5074946;28;20255;-66
2022/03/26 09:22:10;;;;;;;35.63;14.63;;;13.40;99.90;;;;;;5074992;28;20583;-64
2022/03/26 09:24:35;;;;;;;29.40;16.17;;;13.60;99.90;;;;;;5074560;28;20544;-65
2022/03/26 09:27:01;;;;;;;34.77;15.23;;;13.70;99.90;;;;;;5090044;28;20270;-65
2022/03/26 09:29:27;;;;;;;37.00;17.03;;;13.60;99.20;;;;;;5091536;28;20208;-66
2022/03/26 09:31:53;;;;;;;31.43;16.40;;;13.90;99.50;;;;;;5076033;28;20187;-65
2022/03/26 09:34:19;;;;;;;35.63;16.30;;;13.70;98.80;;;;;;5075130;28;20309;-66
2022/03/26 09:36:45;;;;;;;40.03;17.30;;;13.60;99.20;;;;;;5090827;28;20278;-65
2022/03/26 09:39:10;;;;;;;32.47;16.53;;;13.80;99.20;;;;;;5089901;28;20171;-64
2022/03/26 09:41:36;;;;;;;32.03;16.07;;;13.90;98.40;;;;;;5056560;28;20585;-65
2022/03/26 09:44:02;;;;;;;36.57;15.23;;;14.00;97.90;;;;;;5074120;28;20166;-65
2022/03/26 09:46:28;;;;;;;34.00;14.40;;;14.20;97.50;;;;;;5074455;28;20447;-65
2022/03/26 09:48:54;;;;;;;29.27;14.87;;;14.40;96.00;;;;;;5074357;28;20203;-66
2022/03/26 09:51:24;;;;;;;37.33;15.73;;;14.50;95.10;;;;;;5073896;28;20241;-67
2022/03/26 09:53:52;;;;;;;36.13;16.30;;;14.60;94.50;;;;;;5074253;28;20311;-64
2022/03/26 09:56:19;;;;;;;36.00;14.80;;;14.70;93.80;;;;;;5056458;28;20176;-64
2022/03/26 09:58:45;;;;;;;29.10;14.10;;;14.90;92.50;;;;;;5073205;28;20194;-65
2022/03/26 10:01:11;;;;;;;26.83;14.50;;;14.60;92.20;;;;;;5055713;28;20278;-65
2022/03/26 10:03:39;;;;;;;29.70;14.63;;;14.70;91.90;;;;;;5073926;28;20167;-68
2022/03/26 10:06:07;;;;;;;32.47;14.77;;;14.90;91.60;;;;;;5074119;28;20164;-64
2022/03/26 10:08:37;;;;;;;35.77;14.93;;;14.80;91.30;;;;;;5073734;28;20199;-65
2022/03/26 10:11:04;;;;;;;111.27;58.30;;;15.10;91.20;;;;;;5073570;28;20156;-66
2022/03/26 10:13:35;;;;;;;28.20;13.93;;;15.30;90.50;;;;;;5089490;28;20167;-66
2022/03/26 10:16:06;;;;;;;33.33;14.90;;;15.40;90.40;;;;;;5074552;28;20422;-65
2022/03/26 10:18:40;;;;;;;26.00;13.33;;;15.00;91.30;;;;;;5073643;28;20193;-65
2022/03/26 10:21:20;;;;;;;29.43;14.00;;;15.10;91.20;;;;;;5073713;28;20160;-65
2022/03/26 10:23:51;;;;;;;24.37;13.27;;;15.20;91.30;;;;;;5073951;28;20284;-65
2022/03/26 10:26:19;;;;;;;25.43;13.13;;;15.10;91.80;;;;;;5073925;28;20151;-65
2022/03/26 10:28:51;;;;;;;29.00;14.33;;;15.20;91.90;;;;;;5074091;28;20203;-66
2022/03/26 10:34:10;;;;;;;26.83;13.67;;;15.50;90.50;;;;;;5074778;28;20208;-66
2022/03/26 10:37:03;;;;;;;25.93;12.57;;;15.40;91.50;;;;;;5056674;28;20179;-67
2022/03/26 10:39:30;;;;;;;24.47;13.13;;;15.50;92.00;;;;;;5071331;28;20198;-66
2022/03/26 10:41:57;;;;;;;25.33;12.10;;;15.60;92.00;;;;;;5073427;28;20167;-65
2022/03/26 10:44:25;;;;;;;21.23;11.27;;;15.40;92.40;;;;;;5073673;28;20167;-65
2022/03/26 10:46:52;;;;;;;31.67;12.63;;;15.50;92.50;;;;;;5074089;28;20167;-65
2022/03/26 10:49:32;;;;;;;24.57;13.20;;;15.50;92.40;;;;;;5073807;28;20191;-64
2022/03/26 10:52:05;;;;;;;25.37;12.50;;;15.60;92.50;;;;;;5073621;28;20162;-70
2022/03/26 10:54:33;;;;;;;22.13;10.53;;;15.70;92.40;;;;;;5074986;28;20182;-67
2022/03/26 10:57:00;;;;;;;22.50;11.60;;;15.80;92.00;;;;;;5077357;28;20166;-64
2022/03/26 10:59:27;;;;;;;23.20;10.77;;;15.70;91.80;;;;;;5073099;28;20168;-65
2022/03/26 11:01:53;;;;;;;17.20;10.23;;;15.80;92.10;;;;;;5072832;28;20164;-65
2022/03/26 11:04:20;;;;;;;19.67;9.23;;;15.90;91.60;;;;;;5073393;28;20178;-64
2022/03/26 11:06:47;;;;;;;18.60;9.03;;;15.80;92.10;;;;;;5073214;28;20586;-65
2022/03/26 11:09:15;;;;;;;24.20;11.03;;;15.90;91.90;;;;;;5073693;28;20191;-65
2022/03/26 11:11:43;;;;;;;23.60;10.20;;;15.90;91.90;;;;;;5077385;28;20164;-65
2022/03/26 11:14:13;;;;;;;19.80;9.90;;;15.70;92.50;;;;;;5059741;28;20172;-66
2022/03/26 11:16:39;;;;;;;16.93;9.90;;;15.80;92.50;;;;;;5077244;28;20160;-64
2022/03/26 11:19:30;;;;;;;17.63;9.53;;;16.10;92.10;;;;;;5077936;28;20166;-65
2022/03/26 11:22:33;;;;;;;21.50;9.70;;;16.20;91.70;;;;;;5077285;28;20163;-65
2022/03/26 11:25:25;;;;;;;15.23;9.50;;;16.30;91.30;;;;;;5076977;28;20168;-66
2022/03/26 11:28:20;;;;;;;18.47;10.10;;;16.30;91.60;;;;;;5076696;28;20168;-65
2022/03/26 11:30:51;;;;;;;16.20;9.27;;;16.30;91.50;;;;;;5085033;28;20186;-65
2022/03/26 11:33:19;;;;;;;17.10;9.87;;;16.10;91.90;;;;;;5079557;28;20247;-65
2022/03/26 11:35:59;;;;;;;14.83;8.47;;;16.20;92.10;;;;;;5076452;28;20241;-65
2022/03/26 11:38:30;;;;;;;16.00;9.40;;;16.50;91.40;;;;;;5087723;28;20170;-65
2022/03/26 11:41:00;;;;;;;13.20;8.50;;;16.30;91.90;;;;;;5096641;28;20627;-66
2022/03/26 11:43:56;;;;;;;11.77;7.87;;;16.30;91.50;;;;;;5097709;28;20155;-66
2022/03/26 11:52:29;;;;;;;11.63;7.17;;;16.50;90.80;;;;;;5096915;28;20249;-64
2022/03/26 11:55:16;;;;;;;11.53;7.53;;;16.30;91.10;;;;;;5096698;28;20293;-65
2022/03/26 11:57:42;;;;;;;17.30;8.50;;;16.50;90.20;;;;;;5096980;28;20468;-64
2022/03/26 12:00:18;;;;;;;13.27;8.47;;;16.50;90.40;;;;;;5096943;28;20166;-65
2022/03/26 12:02:53;;;;;;;13.13;7.73;;;16.60;90.20;;;;;;5096959;28;20151;-64
2022/03/26 12:08:32;;;;;;;12.77;8.67;;;16.70;88.00;;;;;;5099428;28;20166;-66
2022/03/26 12:10:58;;;;;;;20.42;9.30;;;16.80;89.40;;;;;;5101714;28;20155;-65
2022/03/26 12:13:23;;;;;;;17.50;9.88;;;17.00;88.00;;;;;;5098524;28;20220;-65
2022/03/26 12:16:00;;;;;;;12.70;8.10;;;17.00;88.70;;;;;;5079079;28;20633;-64
2022/03/26 12:18:31;;;;;;;21.73;9.50;;;17.10;87.80;;;;;;5099065;28;20213;-65
2022/03/26 12:21:06;;;;;;;17.20;9.43;;;16.80;89.30;;;;;;5099104;28;20159;-64
2022/03/26 12:23:34;;;;;;;16.52;10.10;;;16.90;89.90;;;;;;5099963;28;20166;-66
2022/03/26 12:26:01;;;;;;;16.93;9.67;;;17.00;89.30;;;;;;5097586;28;20573;-67
2022/03/26 12:28:26;;;;;;;15.57;9.65;;;16.90;88.60;;;;;;5088385;28;20525;-66
2022/03/26 12:30:54;;;;;;;13.48;8.70;;;17.00;88.70;;;;;;5076471;28;20186;-65
2022/03/26 12:33:23;;;;;;;16.35;9.57;;;17.00;87.40;;;;;;5076396;28;20490;-65
2022/03/26 12:35:52;;;;;;;19.97;11.97;;;16.80;87.30;;;;;;5091443;28;20203;-65
2022/03/26 12:38:19;;;;;;;20.10;10.30;;;16.80;86.20;;;;;;5104035;28;20689;-66
2022/03/26 12:40:56;;;;;;;14.93;9.07;;;16.80;85.70;;;;;;5116422;28;20552;-65
2022/03/26 12:43:23;;;;;;;16.35;9.80;;;17.10;85.60;;;;;;5116261;28;20193;-67
2022/03/26 12:45:49;;;;;;;19.75;11.98;;;17.00;85.40;;;;;;5117062;28;20497;-64
2022/03/26 12:48:15;;;;;;;13.87;9.00;;;17.30;85.30;;;;;;5116140;28;20205;-65